createdAt,value
2023-06-11T00:01:36.297Z,68.86
2023-06-11T00:05:04.433Z,68.52
2023-06-11T00:08:22.400Z,68.61
2023-06-11T00:11:37.877Z,67.97
2023-06-11T00:15:02.412Z,68.21
2023-06-11T00:18:11.812Z,67.84
2023-06-11T00:21:32.377Z,67.54
2023-06-11T00:25:24.615Z,68.17
2023-06-11T00:28:51.646Z,68.02
2023-06-11T00:31:47.663Z,68.51
2023-06-11T00:34:34.676Z,67.91
2023-06-11T00:38:20.554Z,68.27
2023-06-11T00:42:01.857Z,69.41
2023-06-11T00:45:09.308Z,69.21
2023-06-11T00:47:38.353Z,68.78
2023-06-11T00:50:12.732Z,68.63
2023-06-11T00:53:05.828Z,68.51
2023-06-11T00:55:35.918Z,68.63
2023-06-11T00:58:03.213Z,68.55
2023-06-11T01:01:11.683Z,68.70
2023-06-11T01:03:55.085Z,68.48
2023-06-11T01:06:35.146Z,69.17
2023-06-11T01:09:11.588Z,69.28
2023-06-11T01:12:03.884Z,68.79
2023-06-11T01:15:13.800Z,68.70
2023-06-11T01:18:59.672Z,68.59
2023-06-11T01:22:35.948Z,68.88
2023-06-11T01:26:00.197Z,69.46
2023-06-11T01:28:48.477Z,69.70
2023-06-11T01:31:40.071Z,69.83
2023-06-11T01:35:05.125Z,69.10
2023-06-11T01:38:00.840Z,69.72
2023-06-11T01:41:30.783Z,69.08
2023-06-11T01:44:29.413Z,68.54
2023-06-11T01:48:01.088Z,69.02
2023-06-11T01:50:37.566Z,68.68
2023-06-11T01:53:41.055Z,68.51
2023-06-11T01:56:11.792Z,68.44
2023-06-11T01:58:38.773Z,68.23
2023-06-11T02:01:16.460Z,68.09
2023-06-11T02:03:44.121Z,68.38
2023-06-11T02:06:15.237Z,68.96
2023-06-11T02:08:48.740Z,68.65
2023-06-11T02:11:30.224Z,68.72
2023-06-11T02:14:13.446Z,67.95
2023-06-11T02:17:03.308Z,67.71
2023-06-11T02:20:18.561Z,67.54
2023-06-11T02:23:06.027Z,67.80
2023-06-11T02:26:05.514Z,68.32
2023-06-11T02:28:35.393Z,68.25
2023-06-11T02:31:22.409Z,68.80
2023-06-11T02:33:54.928Z,69.14
2023-06-11T02:36:59.397Z,68.53
2023-06-11T02:39:26.660Z,68.82
2023-06-11T02:42:14.525Z,68.31
2023-06-11T02:45:09.959Z,68.35
2023-06-11T02:48:03.494Z,68.87
2023-06-11T02:51:47.691Z,68.96
2023-06-11T02:55:19.624Z,70.22
2023-06-11T02:58:00.534Z,69.56
2023-06-11T03:01:18.468Z,70.13
2023-06-11T03:04:02.288Z,69.33
2023-06-11T03:06:42.096Z,68.92
2023-06-11T03:09:19.212Z,68.43
2023-06-11T03:11:50.241Z,68.88
2023-06-11T03:14:21.603Z,68.88
2023-06-11T03:16:51.584Z,68.64
2023-06-11T03:19:43.218Z,68.00
2023-06-11T03:22:54.673Z,67.45
2023-06-11T03:26:07.489Z,66.80
2023-06-11T03:28:55.309Z,66.63
2023-06-11T03:31:52.505Z,66.58
2023-06-11T03:34:53.383Z,66.33
2023-06-11T03:38:35.358Z,66.10
2023-06-11T03:41:59.220Z,67.07
2023-06-11T03:44:45.319Z,66.21
2023-06-11T03:47:25.351Z,65.76
2023-06-11T03:50:13.626Z,65.54
2023-06-11T03:53:12.789Z,65.39
2023-06-11T03:56:25.963Z,65.04
2023-06-11T03:59:28.540Z,65.48
2023-06-11T04:02:31.322Z,66.18
2023-06-11T04:05:53.652Z,66.65
2023-06-11T04:09:41.445Z,66.05
2023-06-11T04:12:33.432Z,67.01
2023-06-11T04:15:13.544Z,66.86
2023-06-11T04:18:30.425Z,66.64
2023-06-11T04:21:33.832Z,66.19
2023-06-11T04:24:10.386Z,66.63
2023-06-11T04:26:51.633Z,66.76
2023-06-11T04:29:19.133Z,66.07
2023-06-11T04:31:50.740Z,65.51
2023-06-11T04:34:21.385Z,66.81
2023-06-11T04:36:53.974Z,67.37
2023-06-11T04:39:24.383Z,67.42
2023-06-11T04:41:51.979Z,66.55
2023-06-11T04:44:42.649Z,65.91
2023-06-11T04:47:23.256Z,65.81
2023-06-11T04:49:57.389Z,65.74
2023-06-11T04:52:39.421Z,65.52
2023-06-11T04:55:23.718Z,65.29
2023-06-11T04:57:55.134Z,64.80
2023-06-11T05:00:46.929Z,64.13
2023-06-11T05:03:29.885Z,64.55
2023-06-11T05:06:02.591Z,64.46
2023-06-11T05:08:29.475Z,64.84
2023-06-11T05:11:01.132Z,65.09
2023-06-11T05:13:31.848Z,64.79
2023-06-11T05:16:09.776Z,64.52
2023-06-11T05:19:02.854Z,63.75
2023-06-11T05:21:30.234Z,63.42
2023-06-11T05:24:19.079Z,63.36
2023-06-11T05:26:58.985Z,63.60
2023-06-11T05:30:34.457Z,62.99
2023-06-11T05:33:33.377Z,61.96
2023-06-11T05:36:03.165Z,61.82
2023-06-11T05:38:30.333Z,60.57
2023-06-11T05:41:54.165Z,59.11
2023-06-11T05:45:21.688Z,60.27
2023-06-11T05:48:01.772Z,62.00
2023-06-11T05:50:33.929Z,63.80
2023-06-11T05:53:03.961Z,63.10
2023-06-11T05:56:01.196Z,60.86
2023-06-11T05:59:08.798Z,58.80
2023-06-11T06:02:21.617Z,58.58
2023-06-11T06:05:48.835Z,59.20
2023-06-11T06:09:08.228Z,60.98
2023-06-11T06:11:56.979Z,60.70
2023-06-11T06:15:25.689Z,60.45
2023-06-11T06:18:40.517Z,61.63
2023-06-11T06:21:54.172Z,62.43
2023-06-11T06:25:27.380Z,60.20
2023-06-11T06:28:36.054Z,59.55
2023-06-11T06:31:31.532Z,58.62
2023-06-11T06:34:34.519Z,58.16
2023-06-11T06:37:21.694Z,57.06
2023-06-11T06:40:42.260Z,58.66
2023-06-11T06:43:31.024Z,57.70
2023-06-11T06:46:58.992Z,54.74
2023-06-11T06:50:28.686Z,53.29
2023-06-11T06:54:18.451Z,51.46
2023-06-11T06:58:15.351Z,45.84
2023-06-11T07:01:50.271Z,46.40
2023-06-11T07:05:43.985Z,46.21
2023-06-11T07:09:25.627Z,48.34
2023-06-11T07:12:47.425Z,48.22
2023-06-11T07:16:21.045Z,49.61
2023-06-11T07:20:21.736Z,51.31
2023-06-11T07:24:17.211Z,50.46
2023-06-11T07:27:48.951Z,50.41
2023-06-11T07:31:24.669Z,52.16
2023-06-11T07:35:23.331Z,52.20
2023-06-11T07:38:46.373Z,53.03
2023-06-11T07:42:11.252Z,53.86
2023-06-11T07:45:50.146Z,54.45
2023-06-11T07:49:58.166Z,51.12
2023-06-11T07:53:50.278Z,51.53
2023-06-11T07:57:41.006Z,48.73
2023-06-11T08:01:28.773Z,47.77
2023-06-11T08:05:09.722Z,48.44
2023-06-11T08:08:39.882Z,50.53
2023-06-11T08:12:16.949Z,51.35
2023-06-11T08:16:01.508Z,50.88
2023-06-11T08:19:57.561Z,49.64
2023-06-11T08:23:43.403Z,47.86
2023-06-11T08:27:31.582Z,49.76
2023-06-11T08:31:18.161Z,51.75
2023-06-11T08:35:17.948Z,51.87
2023-06-11T08:39:18.454Z,52.77
2023-06-11T08:43:26.017Z,50.39
2023-06-11T08:47:09.060Z,48.47
2023-06-11T08:50:53.071Z,49.85
2023-06-11T08:54:25.137Z,50.13
2023-06-11T08:58:33.304Z,51.38
2023-06-11T09:02:34.192Z,52.33
2023-06-11T09:06:27.278Z,53.34
2023-06-11T09:10:16.328Z,54.12
2023-06-11T09:14:17.020Z,53.67
2023-06-11T09:18:15.062Z,53.65
2023-06-11T09:21:42.859Z,52.61
2023-06-11T09:25:03.039Z,52.41
2023-06-11T09:28:10.513Z,52.45
2023-06-11T09:32:32.609Z,52.49
2023-06-11T09:36:38.187Z,54.31
2023-06-11T09:40:11.958Z,55.35
2023-06-11T09:43:51.462Z,56.89
2023-06-11T09:47:23.992Z,57.52
2023-06-11T09:50:53.270Z,57.73
2023-06-11T09:54:09.041Z,58.46
2023-06-11T09:58:05.754Z,59.05
2023-06-11T10:01:42.682Z,59.60
2023-06-11T10:05:21.004Z,59.57
2023-06-11T10:08:55.817Z,57.67
2023-06-11T10:12:44.182Z,58.20
2023-06-11T10:16:31.601Z,57.75
2023-06-11T10:19:59.147Z,57.02
2023-06-11T10:23:25.616Z,56.44
2023-06-11T10:27:05.877Z,57.91
2023-06-11T10:30:52.797Z,59.33
2023-06-11T10:34:53.872Z,58.52
2023-06-11T10:38:22.244Z,58.44
2023-06-11T10:41:12.378Z,58.14
2023-06-11T10:45:00.245Z,58.96
2023-06-11T10:48:33.554Z,60.04
2023-06-11T10:51:39.278Z,59.39
2023-06-11T10:55:16.574Z,59.73
2023-06-11T10:59:17.418Z,59.16
2023-06-11T11:02:50.951Z,57.94
2023-06-11T11:06:18.930Z,59.26
2023-06-11T11:10:06.327Z,60.09
2023-06-11T11:14:01.181Z,60.85
2023-06-11T11:17:29.908Z,61.65
2023-06-11T11:21:01.577Z,61.95
2023-06-11T11:24:22.105Z,61.95
2023-06-11T11:27:31.016Z,62.05
2023-06-11T11:30:56.119Z,63.16
2023-06-11T11:34:16.780Z,61.43
2023-06-11T11:38:23.553Z,58.64
2023-06-11T11:42:30.578Z,59.45
2023-06-11T11:46:19.574Z,60.82
2023-06-11T11:49:29.534Z,61.61
2023-06-11T11:53:43.501Z,61.53
2023-06-11T11:57:28.209Z,61.22
2023-06-11T12:01:35.065Z,60.32
2023-06-11T12:05:43.367Z,60.53
2023-06-11T12:09:53.007Z,60.42
2023-06-11T12:13:51.014Z,61.49
2023-06-11T12:17:38.970Z,61.92
2023-06-11T12:21:29.619Z,62.52
2023-06-11T12:24:47.194Z,62.57
2023-06-11T12:28:23.575Z,57.61
2023-06-11T12:32:25.796Z,58.24
2023-06-11T12:36:34.179Z,59.13
2023-06-11T12:40:11.861Z,59.34
2023-06-11T12:43:07.098Z,58.86
2023-06-11T12:46:08.615Z,59.62
2023-06-11T12:50:21.071Z,59.11
2023-06-11T12:53:52.046Z,59.15
2023-06-11T12:57:16.079Z,59.62
2023-06-11T13:01:17.186Z,58.40
2023-06-11T13:04:42.599Z,57.79
2023-06-11T13:08:30.455Z,57.35
2023-06-11T13:11:40.421Z,57.61
2023-06-11T13:14:13.306Z,59.04
2023-06-11T13:16:45.757Z,60.01
2023-06-11T13:20:06.844Z,61.21
2023-06-11T13:23:16.254Z,61.42
2023-06-11T13:27:05.381Z,61.81
2023-06-11T13:30:56.401Z,61.58
2023-06-11T13:34:13.307Z,62.00
2023-06-11T13:37:03.823Z,61.75
2023-06-11T13:40:13.560Z,61.96
2023-06-11T13:44:06.621Z,61.86
2023-06-11T13:48:01.908Z,61.79
2023-06-11T13:51:16.544Z,61.97
2023-06-11T13:54:35.075Z,61.30
2023-06-11T13:57:56.798Z,59.78
2023-06-11T14:01:26.498Z,59.19
2023-06-11T14:05:35.117Z,58.13
2023-06-11T14:09:14.696Z,59.20
2023-06-11T14:13:04.574Z,59.63
2023-06-11T14:17:12.882Z,58.42
2023-06-11T14:20:45.931Z,58.56
2023-06-11T14:24:53.910Z,58.97
2023-06-11T14:28:02.636Z,59.83
2023-06-11T14:32:00.379Z,59.70
2023-06-11T14:35:51.675Z,59.27
2023-06-11T14:39:49.286Z,59.37
2023-06-11T14:43:46.641Z,59.46
2023-06-11T14:47:42.281Z,59.92
2023-06-11T14:51:48.974Z,59.99
2023-06-11T14:55:02.415Z,59.84
2023-06-11T14:58:54.876Z,59.74
2023-06-11T15:02:35.891Z,59.88
2023-06-11T15:06:18.134Z,61.30
2023-06-11T15:10:15.086Z,61.34
2023-06-11T15:13:15.997Z,61.27
2023-06-11T15:17:37.535Z,61.51
2023-06-11T15:20:46.929Z,61.37
2023-06-11T15:24:35.525Z,61.05
2023-06-11T15:28:13.431Z,61.21
2023-06-11T15:32:10.332Z,61.09
2023-06-11T15:35:34.228Z,60.95
2023-06-11T15:39:05.326Z,60.88
2023-06-11T15:43:15.392Z,60.85
2023-06-11T15:47:23.533Z,61.05
2023-06-11T15:51:11.703Z,61.81
2023-06-11T15:54:56.434Z,61.11
2023-06-11T15:59:04.765Z,61.72
2023-06-11T16:03:06.949Z,62.09
2023-06-11T16:06:51.143Z,61.43
2023-06-11T16:10:28.072Z,58.30
2023-06-11T16:14:28.801Z,58.88
2023-06-11T16:18:25.544Z,60.23
2023-06-11T16:22:22.522Z,61.20
2023-06-11T16:25:41.403Z,61.66
2023-06-11T16:28:55.686Z,62.34
2023-06-11T16:32:10.326Z,63.52
2023-06-11T16:35:20.756Z,59.10
2023-06-11T16:39:30.324Z,59.29
2023-06-11T16:43:21.939Z,60.31
2023-06-11T16:45:51.509Z,60.85
2023-06-11T16:49:41.848Z,61.47
2023-06-11T16:52:41.046Z,62.15
2023-06-11T16:56:18.977Z,61.98
2023-06-11T16:59:51.066Z,63.64
2023-06-11T17:03:19.012Z,60.54
2023-06-11T17:06:49.687Z,56.57
2023-06-11T17:09:39.051Z,57.75
2023-06-11T17:12:17.513Z,58.59
2023-06-11T17:15:40.162Z,59.46
2023-06-11T17:19:46.751Z,60.21
2023-06-11T17:23:45.926Z,60.67
2023-06-11T17:27:20.241Z,61.39
2023-06-11T17:30:51.638Z,61.72
2023-06-11T17:34:21.453Z,61.63
2023-06-11T17:37:36.255Z,62.18
2023-06-11T17:41:48.023Z,62.26
2023-06-11T17:45:37.853Z,60.86
2023-06-11T17:48:31.361Z,59.91
2023-06-11T17:51:20.108Z,57.19
2023-06-11T17:55:13.358Z,58.29
2023-06-11T17:58:45.948Z,59.57
2023-06-11T18:02:03.465Z,60.69
2023-06-11T18:04:41.356Z,61.28
2023-06-11T18:08:37.872Z,62.61
2023-06-11T18:11:59.615Z,62.32
2023-06-11T18:15:33.022Z,60.38
2023-06-11T18:19:34.973Z,57.65
2023-06-11T18:23:17.221Z,58.77
2023-06-11T18:26:27.220Z,59.85
2023-06-11T18:29:34.444Z,60.43
2023-06-11T18:33:06.136Z,60.85
2023-06-11T18:36:35.167Z,63.42
2023-06-11T18:40:35.169Z,64.99
2023-06-11T18:43:23.060Z,61.16
2023-06-11T18:46:04.877Z,60.58
2023-06-11T18:48:50.528Z,57.79
2023-06-11T18:51:56.680Z,56.42
2023-06-11T18:54:29.634Z,57.56
2023-06-11T18:57:57.903Z,58.69
2023-06-11T19:00:51.651Z,58.91
2023-06-11T19:04:45.594Z,60.20
2023-06-11T19:07:47.046Z,60.66
2023-06-11T19:10:49.275Z,61.57
2023-06-11T19:13:19.405Z,61.54
2023-06-11T19:16:09.794Z,63.01
2023-06-11T19:18:50.335Z,66.63
2023-06-11T19:22:46.076Z,64.26
2023-06-11T19:26:36.332Z,61.29
2023-06-11T19:30:01.991Z,57.36
2023-06-11T19:32:54.981Z,57.02
2023-06-11T19:36:38.894Z,58.11
2023-06-11T19:40:28.869Z,59.15
2023-06-11T19:43:46.414Z,60.32
2023-06-11T19:47:21.823Z,60.54
2023-06-11T19:50:46.483Z,61.03
2023-06-11T19:54:50.412Z,61.57
2023-06-11T19:58:19.542Z,67.69
2023-06-11T20:01:24.834Z,66.27
2023-06-11T20:04:08.709Z,64.32
2023-06-11T20:07:08.947Z,63.14
2023-06-11T20:11:08.235Z,62.26
2023-06-11T20:14:39.156Z,60.28
2023-06-11T20:18:04.291Z,59.34
2023-06-11T20:20:47.056Z,56.50
2023-06-11T20:24:27.499Z,55.85
2023-06-11T20:27:12.684Z,56.63
2023-06-11T20:30:54.313Z,56.48
2023-06-11T20:33:30.243Z,56.90
2023-06-11T20:36:25.207Z,57.24
2023-06-11T20:39:03.743Z,58.32
2023-06-11T20:41:46.880Z,59.38
2023-06-11T20:44:57.405Z,61.14
2023-06-11T20:47:56.884Z,61.28
2023-06-11T20:50:46.036Z,65.33
2023-06-11T20:53:33.240Z,69.24
2023-06-11T20:56:05.048Z,67.79
2023-06-11T20:58:36.320Z,66.34
2023-06-11T21:01:03.518Z,65.00
2023-06-11T21:03:33.276Z,64.39
2023-06-11T21:06:03.678Z,63.41
2023-06-11T21:09:13.039Z,62.31
2023-06-11T21:11:43.045Z,61.44
2023-06-11T21:14:26.773Z,60.48
2023-06-11T21:16:56.583Z,60.30
2023-06-11T21:19:23.654Z,59.79
2023-06-11T21:21:50.810Z,59.45
2023-06-11T21:24:20.572Z,56.94
2023-06-11T21:26:47.837Z,56.06
2023-06-11T21:29:18.014Z,55.61
2023-06-11T21:31:48.821Z,56.80
2023-06-11T21:34:19.258Z,56.55
2023-06-11T21:36:48.258Z,58.01
2023-06-11T21:39:20.946Z,58.53
2023-06-11T21:41:55.515Z,62.11
2023-06-11T21:44:31.800Z,64.83
2023-06-11T21:47:05.227Z,66.85
2023-06-11T21:49:59.687Z,66.24
2023-06-11T21:52:30.086Z,66.39
2023-06-11T21:55:02.899Z,65.13
2023-06-11T21:57:30.145Z,63.61
2023-06-11T21:59:57.196Z,62.70
2023-06-11T22:02:50.818Z,61.73
2023-06-11T22:05:38.406Z,60.11
2023-06-11T22:08:13.607Z,58.21
2023-06-11T22:10:50.178Z,56.17
2023-06-11T22:13:48.463Z,56.17
2023-06-11T22:16:16.845Z,56.15
2023-06-11T22:18:52.656Z,56.93
2023-06-11T22:21:22.394Z,56.98
2023-06-11T22:23:53.720Z,59.84
2023-06-11T22:26:28.376Z,61.45
2023-06-11T22:28:57.885Z,60.30
2023-06-11T22:31:25.128Z,60.48
2023-06-11T22:33:55.087Z,62.26
2023-06-11T22:36:29.699Z,66.37
2023-06-11T22:38:59.479Z,68.99
2023-06-11T22:41:29.466Z,69.18
2023-06-11T22:43:59.319Z,68.15
2023-06-11T22:46:36.786Z,65.48
2023-06-11T22:49:35.182Z,64.53
2023-06-11T22:52:08.199Z,64.15
2023-06-11T22:54:38.571Z,62.94
2023-06-11T22:57:08.606Z,62.34
2023-06-11T23:00:06.913Z,61.57
2023-06-11T23:03:04.912Z,60.96
2023-06-11T23:05:39.942Z,59.94
2023-06-11T23:08:07.025Z,60.08
2023-06-11T23:10:39.487Z,57.82
2023-06-11T23:13:08.947Z,55.67
2023-06-11T23:15:42.564Z,55.71
2023-06-11T23:18:12.946Z,55.42
2023-06-11T23:21:06.484Z,56.24
2023-06-11T23:23:41.883Z,56.55
2023-06-11T23:26:53.393Z,61.06
2023-06-11T23:29:41.043Z,64.90
2023-06-11T23:32:11.749Z,66.22
2023-06-11T23:35:14.764Z,66.28
2023-06-11T23:37:58.502Z,65.57
2023-06-11T23:40:28.716Z,64.46
2023-06-11T23:43:01.629Z,63.77
2023-06-11T23:45:34.795Z,62.58
2023-06-11T23:48:38.110Z,61.85
2023-06-11T23:51:20.247Z,60.68
2023-06-11T23:54:16.405Z,59.59
2023-06-11T23:56:48.629Z,56.17
2023-06-11T23:59:20.952Z,55.09
